createdAt,value
2019-03-24T00:01:02.655Z,54.80
2019-03-24T00:02:05.969Z,54.80
2019-03-24T00:03:09.298Z,54.80
2019-03-24T00:04:12.623Z,54.80
2019-03-24T00:05:15.903Z,54.80
2019-03-24T00:06:21.077Z,54.80
2019-03-24T00:07:24.315Z,54.90
2019-03-24T00:08:27.551Z,55.00
2019-03-24T00:09:30.805Z,54.90
2019-03-24T00:10:34.100Z,55.00
2019-03-24T00:11:37.408Z,55.00
2019-03-24T00:12:40.651Z,55.00
2019-03-24T00:13:43.960Z,56.10
2019-03-24T00:14:47.191Z,55.00
2019-03-24T00:15:50.427Z,55.00
2019-03-24T00:16:53.656Z,54.90
2019-03-24T00:17:56.907Z,54.80
2019-03-24T00:19:00.419Z,54.80
2019-03-24T00:20:04.977Z,54.80
2019-03-24T00:21:08.284Z,55.00
2019-03-24T00:22:11.659Z,55.00
2019-03-24T00:23:14.964Z,55.00
2019-03-24T00:24:18.285Z,55.00
2019-03-24T00:25:24.499Z,55.50
2019-03-24T00:26:28.012Z,54.90
2019-03-24T00:27:31.605Z,55.00
2019-03-24T00:28:38.856Z,54.80
2019-03-24T00:29:42.108Z,54.90
2019-03-24T00:30:45.409Z,54.80
2019-03-24T00:31:48.771Z,55.90
2019-03-24T00:32:52.425Z,54.80
2019-03-24T00:33:55.723Z,54.90
2019-03-24T00:34:59.300Z,55.10
2019-03-24T00:36:02.575Z,55.10
2019-03-24T00:37:08.527Z,55.10
2019-03-24T00:38:11.775Z,55.10
2019-03-24T00:39:15.013Z,55.00
2019-03-24T00:40:18.589Z,55.00
2019-03-24T00:41:22.172Z,54.90
2019-03-24T00:42:25.487Z,55.10
2019-03-24T00:43:29.935Z,54.90
2019-03-24T00:44:33.167Z,54.90
2019-03-24T00:45:37.210Z,55.00
2019-03-24T00:46:40.656Z,54.90
2019-03-24T00:47:44.233Z,55.10
2019-03-24T00:48:47.463Z,54.90
2019-03-24T00:49:53.103Z,54.90
2019-03-24T00:50:56.346Z,54.80
2019-03-24T00:51:59.573Z,54.90
2019-03-24T00:53:03.108Z,55.00
2019-03-24T00:54:06.507Z,55.10
2019-03-24T00:55:09.901Z,54.90
2019-03-24T00:56:14.055Z,55.00
2019-03-24T00:57:19.419Z,55.10
2019-03-24T00:58:22.708Z,55.00
2019-03-24T00:59:26.174Z,55.00
2019-03-24T01:00:40.971Z,54.90
2019-03-24T01:01:44.271Z,54.90
2019-03-24T01:02:47.515Z,55.10
2019-03-24T01:03:50.767Z,55.10
2019-03-24T01:04:54.803Z,55.00
2019-03-24T01:05:58.429Z,55.00
2019-03-24T01:07:02.577Z,56.20
2019-03-24T01:08:06.000Z,55.10
2019-03-24T01:09:09.235Z,55.10
2019-03-24T01:10:12.620Z,55.00
2019-03-24T01:11:16.244Z,55.10
2019-03-24T01:12:19.619Z,55.10
2019-03-24T01:13:23.804Z,55.00
2019-03-24T01:14:27.063Z,55.10
2019-03-24T01:15:30.396Z,55.00
2019-03-24T01:16:33.667Z,55.00
2019-03-24T01:17:39.756Z,54.90
2019-03-24T01:18:44.768Z,55.00
2019-03-24T01:19:48.015Z,55.00
2019-03-24T01:20:54.276Z,55.10
2019-03-24T01:21:57.555Z,56.30
2019-03-24T01:23:02.572Z,54.80
2019-03-24T01:24:05.803Z,55.10
2019-03-24T01:25:10.807Z,55.10
2019-03-24T01:26:15.365Z,55.00
2019-03-24T01:27:21.399Z,55.00
2019-03-24T01:28:24.645Z,56.20
2019-03-24T01:29:28.314Z,55.00
2019-03-24T01:30:31.567Z,55.00
2019-03-24T01:31:34.843Z,55.00
2019-03-24T01:32:39.315Z,55.00
2019-03-24T01:33:42.618Z,55.10
2019-03-24T01:34:45.911Z,55.00
2019-03-24T01:35:51.016Z,55.10
2019-03-24T01:36:54.250Z,55.00
2019-03-24T01:37:57.487Z,55.00
2019-03-24T01:39:00.883Z,55.10
2019-03-24T01:40:05.559Z,55.00
2019-03-24T01:41:08.790Z,55.10
2019-03-24T01:42:12.019Z,54.90
2019-03-24T01:43:15.264Z,55.00
2019-03-24T01:44:18.836Z,55.30
2019-03-24T01:45:26.695Z,55.10
2019-03-24T01:46:29.952Z,55.20
2019-03-24T01:47:34.304Z,55.00
2019-03-24T01:48:37.555Z,55.00
2019-03-24T01:49:40.932Z,55.10
2019-03-24T01:50:44.191Z,55.00
2019-03-24T01:51:49.983Z,55.00
2019-03-24T01:52:53.335Z,55.10
2019-03-24T01:53:56.648Z,55.00
2019-03-24T01:55:00.118Z,54.90
2019-03-24T01:56:06.528Z,55.00
2019-03-24T01:57:15.589Z,55.10
2019-03-24T01:58:18.818Z,55.00
2019-03-24T01:59:22.063Z,54.80
2019-03-24T02:00:25.863Z,55.00
2019-03-24T02:01:29.102Z,55.10
2019-03-24T02:02:32.409Z,54.80
2019-03-24T02:03:35.724Z,55.00
2019-03-24T02:04:39.227Z,54.70
2019-03-24T02:05:42.819Z,55.00
2019-03-24T02:06:46.432Z,55.00
2019-03-24T02:07:51.608Z,55.10
2019-03-24T02:08:54.847Z,54.90
2019-03-24T02:09:58.077Z,55.00
2019-03-24T02:11:01.335Z,55.10
2019-03-24T02:12:07.544Z,55.10
2019-03-24T02:13:10.773Z,55.10
2019-03-24T02:14:14.163Z,55.20
2019-03-24T02:15:17.839Z,55.20
2019-03-24T02:16:21.071Z,55.30
2019-03-24T02:17:24.311Z,55.30
2019-03-24T02:18:30.527Z,55.20
2019-03-24T02:19:33.767Z,55.20
2019-03-24T02:20:37.002Z,55.10
2019-03-24T02:21:40.267Z,55.10
2019-03-24T02:22:43.590Z,55.10
2019-03-24T02:23:46.823Z,55.10
2019-03-24T02:24:50.619Z,55.10
2019-03-24T02:25:53.987Z,55.10
2019-03-24T02:26:57.275Z,55.00
2019-03-24T02:28:00.530Z,55.00
2019-03-24T02:29:06.751Z,55.00
2019-03-24T02:30:10.555Z,55.20
2019-03-24T02:31:13.944Z,55.30
2019-03-24T02:32:17.255Z,55.20
2019-03-24T02:33:20.588Z,55.20
2019-03-24T02:34:25.705Z,55.20
2019-03-24T02:35:28.999Z,55.30
2019-03-24T02:36:32.231Z,55.30
2019-03-24T02:37:35.700Z,55.30
2019-03-24T02:38:39.953Z,55.30
2019-03-24T02:39:43.264Z,55.30
2019-03-24T02:40:46.764Z,55.10
2019-03-24T02:41:49.999Z,55.00
2019-03-24T02:42:53.251Z,55.10
2019-03-24T02:43:56.560Z,55.10
2019-03-24T02:44:59.831Z,55.10
2019-03-24T02:46:03.141Z,55.10
2019-03-24T02:47:07.139Z,55.20
2019-03-24T02:48:10.657Z,55.30
2019-03-24T02:49:14.244Z,55.30
2019-03-24T02:50:17.574Z,55.40
2019-03-24T02:51:20.899Z,55.50
2019-03-24T02:52:24.301Z,55.40
2019-03-24T02:53:27.611Z,55.30
2019-03-24T02:54:30.852Z,55.30
2019-03-24T02:55:34.195Z,56.50
2019-03-24T02:56:38.412Z,55.30
2019-03-24T02:57:42.532Z,55.30
2019-03-24T02:58:45.864Z,55.30
2019-03-24T02:59:49.125Z,55.20
2019-03-24T03:00:52.472Z,55.10
2019-03-24T03:01:55.757Z,55.10
2019-03-24T03:02:59.293Z,55.20
2019-03-24T03:04:02.616Z,55.10
2019-03-24T03:05:06.859Z,55.10
2019-03-24T03:06:10.958Z,55.20
2019-03-24T03:07:14.320Z,55.30
2019-03-24T03:08:17.547Z,55.20
2019-03-24T03:09:20.787Z,55.30
2019-03-24T03:10:24.204Z,55.30
2019-03-24T03:11:27.513Z,55.30
2019-03-24T03:12:30.816Z,55.20
2019-03-24T03:13:34.119Z,55.10
2019-03-24T03:14:37.564Z,55.00
2019-03-24T03:15:40.879Z,55.00
2019-03-24T03:16:44.233Z,55.00
2019-03-24T03:17:47.563Z,55.30
2019-03-24T03:18:50.817Z,55.10
2019-03-24T03:19:56.960Z,55.40
2019-03-24T03:21:00.361Z,55.30
2019-03-24T03:22:06.431Z,55.30
2019-03-24T03:23:09.663Z,55.10
2019-03-24T03:24:12.898Z,55.20
2019-03-24T03:25:16.141Z,55.10
2019-03-24T03:26:19.443Z,55.20
2019-03-24T03:27:22.675Z,55.10
2019-03-24T03:28:26.015Z,55.30
2019-03-24T03:29:29.249Z,55.30
2019-03-24T03:30:32.601Z,56.50
2019-03-24T03:31:35.913Z,55.30
2019-03-24T03:32:39.233Z,56.20
2019-03-24T03:33:42.528Z,55.30
2019-03-24T03:34:45.840Z,55.10
2019-03-24T03:35:49.255Z,55.30
2019-03-24T03:36:52.868Z,55.40
2019-03-24T03:37:56.187Z,55.30
2019-03-24T03:38:59.476Z,55.40
2019-03-24T03:40:04.765Z,55.50
2019-03-24T03:41:08.088Z,55.40
2019-03-24T03:42:11.415Z,55.40
2019-03-24T03:43:14.748Z,55.50
2019-03-24T03:44:18.111Z,55.60
2019-03-24T03:45:27.347Z,55.50
2019-03-24T03:46:32.428Z,55.30
2019-03-24T03:47:35.942Z,55.30
2019-03-24T03:48:39.179Z,55.20
2019-03-24T03:49:42.472Z,55.40
2019-03-24T03:50:48.761Z,55.50
2019-03-24T03:51:52.063Z,55.50
2019-03-24T03:52:55.303Z,55.40
2019-03-24T03:53:59.198Z,55.40
2019-03-24T03:55:03.842Z,55.50
2019-03-24T03:56:07.216Z,55.20
2019-03-24T03:57:10.453Z,55.10
2019-03-24T03:58:13.750Z,55.00
2019-03-24T03:59:19.625Z,55.10
2019-03-24T04:00:26.116Z,55.10
2019-03-24T04:01:30.381Z,55.10
2019-03-24T04:02:39.634Z,55.10
2019-03-24T04:03:43.013Z,55.10
2019-03-24T04:04:46.315Z,55.30
2019-03-24T04:05:49.589Z,55.30
2019-03-24T04:06:53.000Z,55.30
2019-03-24T04:07:56.333Z,55.20
2019-03-24T04:08:59.641Z,55.20
2019-03-24T04:10:03.533Z,55.40
2019-03-24T04:11:08.604Z,55.40
2019-03-24T04:12:12.264Z,55.40
2019-03-24T04:13:15.952Z,55.40
2019-03-24T04:14:19.297Z,55.50
2019-03-24T04:15:25.464Z,55.40
2019-03-24T04:16:28.815Z,55.30
2019-03-24T04:17:32.116Z,55.40
2019-03-24T04:18:35.374Z,55.40
2019-03-24T04:19:42.020Z,55.30
2019-03-24T04:20:50.330Z,55.50
2019-03-24T04:21:53.640Z,55.50
2019-03-24T04:22:57.281Z,55.60
2019-03-24T04:24:00.615Z,55.70
2019-03-24T04:25:05.460Z,55.50
2019-03-24T04:26:08.705Z,55.40
2019-03-24T04:27:12.012Z,55.20
2019-03-24T04:28:15.243Z,55.30
2019-03-24T04:29:18.582Z,55.30
2019-03-24T04:30:21.888Z,55.30
2019-03-24T04:31:25.139Z,55.60
2019-03-24T04:32:30.312Z,55.40
2019-03-24T04:33:33.552Z,55.30
2019-03-24T04:34:38.938Z,55.20
2019-03-24T04:35:42.293Z,55.30
2019-03-24T04:36:47.312Z,55.50
2019-03-24T04:37:50.936Z,55.50
2019-03-24T04:38:54.244Z,55.40
2019-03-24T04:39:57.801Z,55.50
2019-03-24T04:41:04.035Z,55.50
2019-03-24T04:42:07.271Z,55.10
2019-03-24T04:43:10.575Z,55.40
2019-03-24T04:44:14.132Z,55.30
2019-03-24T04:45:17.511Z,55.50
2019-03-24T04:46:20.767Z,55.50
2019-03-24T04:47:24.001Z,55.50
2019-03-24T04:48:27.274Z,55.50
2019-03-24T04:49:30.637Z,55.50
2019-03-24T04:50:33.897Z,55.40
2019-03-24T04:51:38.915Z,55.40
2019-03-24T04:52:42.528Z,55.50
2019-03-24T04:53:46.916Z,55.50
2019-03-24T04:54:50.266Z,55.50
2019-03-24T04:55:56.399Z,55.50
2019-03-24T04:56:59.856Z,55.50
2019-03-24T04:58:06.215Z,55.40
2019-03-24T04:59:09.552Z,55.30
2019-03-24T05:00:13.733Z,55.10
2019-03-24T05:01:17.140Z,55.20
2019-03-24T05:02:20.379Z,55.20
2019-03-24T05:03:23.632Z,55.30
2019-03-24T05:04:26.869Z,55.30
2019-03-24T05:05:30.371Z,55.30
2019-03-24T05:06:33.676Z,55.30
2019-03-24T05:07:37.522Z,55.40
2019-03-24T05:08:40.823Z,55.50
2019-03-24T05:09:44.071Z,55.50
2019-03-24T05:10:47.316Z,55.50
2019-03-24T05:11:50.648Z,55.40
2019-03-24T05:12:54.460Z,55.50
2019-03-24T05:13:57.687Z,55.40
2019-03-24T05:15:00.932Z,55.50
2019-03-24T05:16:04.235Z,55.50
2019-03-24T05:17:07.591Z,55.30
2019-03-24T05:18:11.863Z,55.20
2019-03-24T05:19:15.191Z,55.30
2019-03-24T05:20:19.229Z,55.30
2019-03-24T05:21:22.865Z,55.40
2019-03-24T05:22:26.106Z,55.90
2019-03-24T05:23:29.343Z,55.40
2019-03-24T05:24:32.742Z,55.40
2019-03-24T05:25:35.979Z,55.40
2019-03-24T05:26:39.311Z,55.60
2019-03-24T05:27:42.552Z,55.40
2019-03-24T05:28:45.784Z,55.50
2019-03-24T05:29:49.923Z,55.40
2019-03-24T05:30:53.540Z,55.40
2019-03-24T05:31:57.134Z,55.40
2019-03-24T05:33:00.824Z,55.30
2019-03-24T05:34:04.223Z,55.40
2019-03-24T05:35:07.598Z,55.40
2019-03-24T05:36:10.895Z,55.40
2019-03-24T05:37:14.339Z,55.40
2019-03-24T05:38:17.748Z,55.50
2019-03-24T05:39:21.003Z,55.80
2019-03-24T05:40:24.263Z,55.50
2019-03-24T05:41:27.713Z,55.40
2019-03-24T05:42:32.774Z,55.40
2019-03-24T05:43:36.323Z,55.50
2019-03-24T05:44:39.638Z,55.50
2019-03-24T05:45:42.868Z,55.50
2019-03-24T05:46:46.098Z,55.50
2019-03-24T05:47:49.345Z,55.50
2019-03-24T05:48:52.776Z,55.50
2019-03-24T05:49:56.104Z,55.40
2019-03-24T05:51:01.986Z,55.50
2019-03-24T05:52:06.994Z,55.50
2019-03-24T05:53:10.247Z,55.70
2019-03-24T05:54:15.254Z,55.60
2019-03-24T05:55:18.588Z,55.50
2019-03-24T05:56:23.667Z,55.60
2019-03-24T05:57:26.931Z,55.70
2019-03-24T05:58:31.939Z,55.70
2019-03-24T05:59:35.359Z,55.60
2019-03-24T06:00:41.567Z,55.70
2019-03-24T06:01:44.804Z,55.80
2019-03-24T06:02:48.126Z,55.80
2019-03-24T06:03:51.356Z,56.00
2019-03-24T06:04:54.903Z,55.70
2019-03-24T06:05:58.975Z,55.70
2019-03-24T06:07:02.257Z,55.50
2019-03-24T06:08:07.843Z,55.50
2019-03-24T06:09:11.186Z,55.50
2019-03-24T06:10:17.499Z,55.40
2019-03-24T06:11:20.760Z,55.50
2019-03-24T06:12:24.095Z,55.50
2019-03-24T06:13:27.496Z,55.50
2019-03-24T06:14:30.776Z,55.50
2019-03-24T06:15:34.035Z,55.60
2019-03-24T06:16:40.175Z,55.50
2019-03-24T06:17:47.808Z,55.60
2019-03-24T06:18:48.348Z,55.70
2019-03-24T06:19:51.586Z,55.50
2019-03-24T06:20:54.899Z,55.50
2019-03-24T06:21:58.264Z,56.80
2019-03-24T06:23:01.583Z,55.40
2019-03-24T06:24:05.785Z,55.60
2019-03-24T06:25:09.610Z,55.50
2019-03-24T06:26:13.271Z,55.60
2019-03-24T06:27:16.513Z,55.60
2019-03-24T06:28:19.778Z,55.60
2019-03-24T06:29:23.943Z,55.50
2019-03-24T06:30:28.107Z,55.40
2019-03-24T06:31:31.655Z,55.50
2019-03-24T06:32:34.895Z,55.60
2019-03-24T06:33:38.436Z,55.50
2019-03-24T06:34:41.839Z,55.60
2019-03-24T06:35:45.079Z,55.70
2019-03-24T06:36:48.360Z,55.80
2019-03-24T06:37:51.672Z,55.70
2019-03-24T06:38:54.913Z,55.60
2019-03-24T06:40:00.314Z,56.20
2019-03-24T06:41:03.673Z,55.70
2019-03-24T06:42:07.079Z,55.90
2019-03-24T06:43:10.454Z,55.70
2019-03-24T06:44:13.931Z,55.70
2019-03-24T06:45:27.716Z,55.80
2019-03-24T06:46:22.199Z,55.80
2019-03-24T06:47:25.538Z,55.90
2019-03-24T06:48:28.851Z,55.70
2019-03-24T06:49:32.250Z,55.60
2019-03-24T06:50:35.591Z,55.80
2019-03-24T06:51:38.966Z,56.00
2019-03-24T06:52:42.343Z,55.90
2019-03-24T06:53:46.821Z,55.80
2019-03-24T06:54:53.193Z,55.80
2019-03-24T06:55:58.199Z,55.80
2019-03-24T06:57:01.511Z,55.80
2019-03-24T06:58:10.451Z,55.90
2019-03-24T06:59:14.007Z,55.80
2019-03-24T07:00:18.087Z,56.00
2019-03-24T07:01:23.593Z,55.80
2019-03-24T07:02:26.851Z,55.80
2019-03-24T07:03:33.396Z,55.90
2019-03-24T07:04:36.722Z,55.80
2019-03-24T07:05:42.559Z,55.70
2019-03-24T07:06:45.867Z,55.70
2019-03-24T07:07:49.419Z,55.80
2019-03-24T07:08:52.703Z,55.90
2019-03-24T07:09:55.945Z,55.90
2019-03-24T07:10:59.202Z,56.10
2019-03-24T07:12:02.447Z,56.10
2019-03-24T07:13:05.846Z,56.00
2019-03-24T07:14:09.159Z,56.00
2019-03-24T07:15:12.684Z,56.00
2019-03-24T07:16:15.987Z,56.00
2019-03-24T07:17:19.239Z,56.10
2019-03-24T07:18:25.444Z,55.90
2019-03-24T07:19:28.995Z,55.80
2019-03-24T07:20:32.223Z,55.90
2019-03-24T07:21:35.459Z,55.60
2019-03-24T07:22:38.701Z,55.60
2019-03-24T07:23:41.958Z,55.60
2019-03-24T07:24:45.207Z,55.80
2019-03-24T07:25:48.563Z,55.90
2019-03-24T07:26:51.949Z,55.80
2019-03-24T07:27:55.567Z,55.80
2019-03-24T07:28:58.884Z,56.00
2019-03-24T07:30:03.857Z,56.10
2019-03-24T07:31:08.059Z,56.00
2019-03-24T07:32:13.062Z,55.80
2019-03-24T07:33:16.295Z,55.60
2019-03-24T07:34:19.615Z,55.60
2019-03-24T07:35:23.291Z,55.70
2019-03-24T07:36:27.752Z,55.60
2019-03-24T07:37:31.011Z,55.80
2019-03-24T07:38:36.087Z,55.70
2019-03-24T07:39:39.707Z,55.60
2019-03-24T07:40:45.811Z,55.70
2019-03-24T07:41:49.035Z,57.10
2019-03-24T07:42:53.194Z,55.80
2019-03-24T07:43:59.794Z,55.90
2019-03-24T07:45:04.735Z,55.70
2019-03-24T07:46:08.043Z,55.80
2019-03-24T07:47:12.015Z,55.90
2019-03-24T07:48:19.331Z,55.80
2019-03-24T07:49:21.152Z,55.80
2019-03-24T07:50:24.391Z,55.80
2019-03-24T07:51:27.985Z,56.00
2019-03-24T07:52:31.215Z,55.90
2019-03-24T07:53:34.447Z,56.00
2019-03-24T07:54:38.528Z,55.70
2019-03-24T07:55:41.859Z,55.80
2019-03-24T07:56:45.527Z,55.80
2019-03-24T07:57:48.860Z,55.80
2019-03-24T07:58:52.095Z,55.70
2019-03-24T07:59:55.343Z,55.80
2019-03-24T08:00:58.572Z,55.80
2019-03-24T08:02:01.831Z,55.60
2019-03-24T08:03:06.919Z,55.80
2019-03-24T08:04:10.364Z,55.60
2019-03-24T08:05:13.782Z,55.50
2019-03-24T08:06:17.083Z,55.50
2019-03-24T08:07:20.391Z,55.60
2019-03-24T08:08:23.900Z,55.70
2019-03-24T08:09:27.324Z,55.60
2019-03-24T08:10:30.664Z,55.80
2019-03-24T08:11:33.903Z,55.60
2019-03-24T08:12:37.421Z,55.70
2019-03-24T08:13:53.274Z,55.70
2019-03-24T08:14:50.336Z,55.70
2019-03-24T08:15:56.381Z,55.80
2019-03-24T08:16:59.367Z,55.60
2019-03-24T08:18:02.607Z,55.80
2019-03-24T08:19:06.161Z,55.60
2019-03-24T08:20:12.276Z,55.70
2019-03-24T08:21:15.767Z,55.60
2019-03-24T08:22:19.078Z,55.60
2019-03-24T08:23:28.221Z,55.80
2019-03-24T08:24:32.123Z,55.60
2019-03-24T08:25:36.279Z,55.60
2019-03-24T08:26:39.567Z,54.80
2019-03-24T08:27:42.799Z,55.50
2019-03-24T08:28:46.424Z,55.70
2019-03-24T08:29:49.953Z,55.90
2019-03-24T08:30:53.187Z,55.80
2019-03-24T08:31:56.419Z,55.60
2019-03-24T08:32:59.663Z,55.70
2019-03-24T08:34:02.892Z,55.70
2019-03-24T08:35:06.206Z,55.80
2019-03-24T08:36:09.616Z,55.80
2019-03-24T08:37:12.871Z,56.00
2019-03-24T08:38:16.103Z,56.10
2019-03-24T08:39:19.404Z,56.00
2019-03-24T08:40:22.996Z,55.90
2019-03-24T08:41:26.261Z,55.80
2019-03-24T08:42:29.707Z,55.80
2019-03-24T08:43:33.213Z,55.80
2019-03-24T08:44:36.520Z,55.90
2019-03-24T08:45:40.131Z,55.80
2019-03-24T08:46:45.120Z,55.90
2019-03-24T08:47:48.335Z,55.90
2019-03-24T08:48:51.571Z,55.80
2019-03-24T08:49:54.908Z,55.70
2019-03-24T08:50:58.328Z,55.70
2019-03-24T08:52:01.611Z,55.50
2019-03-24T08:53:04.933Z,55.70
2019-03-24T08:54:08.240Z,55.70
2019-03-24T08:55:14.191Z,55.80
2019-03-24T08:56:17.775Z,55.90
2019-03-24T08:57:21.075Z,55.70
2019-03-24T08:58:24.383Z,55.70
2019-03-24T08:59:27.615Z,55.60
2019-03-24T09:00:31.196Z,55.80
2019-03-24T09:01:37.312Z,55.70
2019-03-24T09:02:40.916Z,55.70
2019-03-24T09:03:44.423Z,56.00
2019-03-24T09:04:47.847Z,55.80
2019-03-24T09:05:53.743Z,56.00
2019-03-24T09:06:57.088Z,55.90
2019-03-24T09:08:01.447Z,57.10
2019-03-24T09:09:05.787Z,55.50
2019-03-24T09:10:09.025Z,55.70
2019-03-24T09:11:12.262Z,55.60
2019-03-24T09:12:15.559Z,55.50
2019-03-24T09:13:18.841Z,55.70
2019-03-24T09:14:25.551Z,55.70
2019-03-24T09:15:28.859Z,55.80
2019-03-24T09:16:32.092Z,55.90
2019-03-24T09:17:35.505Z,57.00
2019-03-24T09:18:38.779Z,55.80
2019-03-24T09:19:42.047Z,57.00
2019-03-24T09:20:45.703Z,55.70
2019-03-24T09:21:48.943Z,55.80
2019-03-24T09:22:52.479Z,55.80
2019-03-24T09:23:55.735Z,55.90
2019-03-24T09:25:02.489Z,55.90
2019-03-24T09:26:05.871Z,56.00
2019-03-24T09:27:09.103Z,55.90
2019-03-24T09:28:12.672Z,55.80
2019-03-24T09:29:16.545Z,55.90
2019-03-24T09:30:31.071Z,56.00
2019-03-24T09:31:34.319Z,56.10
2019-03-24T09:32:37.559Z,56.20
2019-03-24T09:33:43.695Z,56.00
2019-03-24T09:34:46.960Z,55.90
2019-03-24T09:35:50.275Z,56.00
2019-03-24T09:36:53.544Z,55.90
2019-03-24T09:37:56.843Z,56.00
2019-03-24T09:39:00.292Z,55.80
2019-03-24T09:40:05.624Z,56.00
2019-03-24T09:41:08.864Z,55.70
2019-03-24T09:42:12.103Z,55.90
2019-03-24T09:43:15.377Z,55.60
2019-03-24T09:44:21.400Z,55.80
2019-03-24T09:45:24.659Z,55.70
2019-03-24T09:46:27.971Z,55.80
2019-03-24T09:47:31.559Z,55.80
2019-03-24T09:48:34.799Z,55.80
2019-03-24T09:49:38.084Z,55.80
2019-03-24T09:50:44.103Z,55.90
2019-03-24T09:51:47.348Z,56.10
2019-03-24T09:52:50.752Z,56.20
2019-03-24T09:53:53.983Z,56.00
2019-03-24T09:54:57.224Z,55.90
2019-03-24T09:56:00.513Z,55.80
2019-03-24T09:57:06.467Z,56.40
2019-03-24T09:58:10.217Z,55.80
2019-03-24T09:59:13.516Z,55.80
2019-03-24T10:00:16.743Z,55.90
2019-03-24T10:01:20.272Z,56.00
2019-03-24T10:02:23.867Z,55.80
2019-03-24T10:03:27.274Z,55.70
2019-03-24T10:04:30.691Z,55.70
2019-03-24T10:05:33.927Z,55.80
2019-03-24T10:06:37.652Z,55.80
2019-03-24T10:07:41.003Z,55.70
2019-03-24T10:08:47.261Z,55.80
2019-03-24T10:09:49.618Z,55.60
2019-03-24T10:10:52.855Z,55.70
2019-03-24T10:11:56.291Z,55.70
2019-03-24T10:12:59.873Z,55.80
2019-03-24T10:14:03.203Z,55.80
2019-03-24T10:15:06.725Z,55.80
2019-03-24T10:16:10.340Z,55.80
2019-03-24T10:17:13.584Z,55.90
2019-03-24T10:18:16.815Z,57.10
2019-03-24T10:19:20.395Z,55.90
2019-03-24T10:20:23.735Z,55.90
2019-03-24T10:21:27.007Z,55.90
2019-03-24T10:22:30.963Z,55.80
2019-03-24T10:23:34.298Z,55.90
2019-03-24T10:24:37.836Z,55.70
2019-03-24T10:25:41.439Z,55.80
2019-03-24T10:26:45.358Z,55.80
2019-03-24T10:27:50.494Z,55.90
2019-03-24T10:28:53.719Z,55.90
2019-03-24T10:29:57.327Z,56.10
2019-03-24T10:31:00.569Z,56.00
2019-03-24T10:32:03.823Z,56.00
2019-03-24T10:33:07.231Z,55.90
2019-03-24T10:34:10.500Z,55.80
2019-03-24T10:35:13.883Z,55.80
2019-03-24T10:36:17.125Z,55.80
2019-03-24T10:37:23.327Z,56.50
2019-03-24T10:38:26.594Z,55.70
2019-03-24T10:39:31.847Z,55.80
2019-03-24T10:40:34.891Z,55.70
2019-03-24T10:41:38.123Z,55.70
2019-03-24T10:42:41.383Z,55.80
2019-03-24T10:43:47.628Z,55.80
2019-03-24T10:44:50.884Z,55.90
2019-03-24T10:45:54.128Z,56.10
2019-03-24T10:46:57.477Z,56.00
2019-03-24T10:48:00.883Z,56.20
2019-03-24T10:49:04.127Z,56.10
2019-03-24T10:50:09.279Z,56.10
2019-03-24T10:51:12.604Z,56.10
2019-03-24T10:52:18.582Z,56.00
2019-03-24T10:53:21.828Z,56.10
2019-03-24T10:54:25.218Z,55.90
2019-03-24T10:55:28.547Z,56.00
2019-03-24T10:56:33.726Z,56.10
2019-03-24T10:57:37.340Z,55.30
2019-03-24T10:58:40.964Z,56.10
2019-03-24T10:59:44.631Z,56.00
2019-03-24T11:00:48.324Z,56.00
2019-03-24T11:01:51.579Z,56.00
2019-03-24T11:02:54.831Z,56.00
2019-03-24T11:03:58.711Z,56.10
2019-03-24T11:05:02.251Z,56.00
2019-03-24T11:06:05.626Z,56.10
2019-03-24T11:07:10.996Z,56.20
2019-03-24T11:08:14.324Z,56.10
2019-03-24T11:09:17.791Z,56.20
2019-03-24T11:10:21.032Z,56.20
2019-03-24T11:11:26.658Z,56.20
2019-03-24T11:12:30.303Z,56.00
2019-03-24T11:13:33.544Z,56.00
2019-03-24T11:14:36.883Z,56.10
2019-03-24T11:15:41.228Z,56.20
2019-03-24T11:16:44.675Z,56.20
2019-03-24T11:17:47.912Z,56.10
2019-03-24T11:18:51.161Z,56.20
2019-03-24T11:19:54.959Z,55.90
2019-03-24T11:20:58.195Z,56.00
2019-03-24T11:22:04.331Z,56.00
2019-03-24T11:23:07.602Z,56.00
2019-03-24T11:24:14.079Z,56.00
2019-03-24T11:25:17.327Z,56.20
2019-03-24T11:26:20.694Z,56.20
2019-03-24T11:27:24.386Z,56.20
2019-03-24T11:28:30.905Z,56.10
2019-03-24T11:29:34.716Z,56.20
2019-03-24T11:30:38.288Z,56.20
2019-03-24T11:31:42.572Z,56.20
2019-03-24T11:32:45.976Z,56.10
2019-03-24T11:33:53.653Z,56.20
2019-03-24T11:34:57.283Z,56.70
2019-03-24T11:36:03.624Z,56.00
2019-03-24T11:37:11.308Z,56.00
2019-03-24T11:38:14.607Z,55.90
2019-03-24T11:39:17.847Z,56.00
2019-03-24T11:40:21.115Z,56.10
2019-03-24T11:41:26.927Z,56.10
2019-03-24T11:42:30.263Z,56.10
2019-03-24T11:43:36.153Z,56.00
2019-03-24T11:44:39.560Z,56.10
2019-03-24T11:45:44.567Z,56.20
2019-03-24T11:46:47.871Z,55.90
2019-03-24T11:47:51.111Z,56.00
2019-03-24T11:48:54.386Z,56.10
2019-03-24T11:49:57.687Z,56.20
2019-03-24T11:51:01.973Z,56.30
2019-03-24T11:52:05.295Z,56.20
2019-03-24T11:53:08.586Z,55.90
2019-03-24T11:54:14.492Z,57.50
2019-03-24T11:55:17.795Z,55.90
2019-03-24T11:56:21.025Z,56.10
2019-03-24T11:57:24.276Z,56.00
2019-03-24T11:58:27.681Z,56.00
2019-03-24T11:59:31.228Z,55.90
2019-03-24T12:00:35.809Z,55.90
2019-03-24T12:01:39.230Z,55.90
2019-03-24T12:02:42.807Z,56.00
2019-03-24T12:03:46.147Z,55.80
2019-03-24T12:04:49.379Z,55.80
2019-03-24T12:05:52.631Z,55.90
2019-03-24T12:06:56.148Z,56.00
2019-03-24T12:07:59.552Z,55.90
2019-03-24T12:09:04.103Z,55.80
2019-03-24T12:10:07.867Z,55.80
2019-03-24T12:11:11.105Z,55.90
2019-03-24T12:12:14.406Z,56.00
2019-03-24T12:13:17.995Z,56.00
2019-03-24T12:14:21.234Z,56.10
2019-03-24T12:15:24.471Z,56.20
2019-03-24T12:16:28.056Z,56.30
2019-03-24T12:17:31.648Z,56.20
2019-03-24T12:18:35.252Z,56.20
2019-03-24T12:19:38.481Z,56.30
2019-03-24T12:20:43.662Z,56.30
2019-03-24T12:21:46.709Z,56.20
2019-03-24T12:22:49.955Z,56.00
2019-03-24T12:23:53.364Z,56.00
2019-03-24T12:24:57.028Z,56.20
2019-03-24T12:26:02.179Z,56.20
2019-03-24T12:27:06.321Z,56.10
2019-03-24T12:28:09.623Z,56.20
2019-03-24T12:29:13.295Z,56.10
2019-03-24T12:30:16.908Z,56.10
2019-03-24T12:31:20.340Z,56.10
2019-03-24T12:32:23.642Z,56.20
2019-03-24T12:33:26.906Z,57.30
2019-03-24T12:34:33.107Z,57.40
2019-03-24T12:35:36.353Z,56.20
2019-03-24T12:36:39.888Z,56.20
2019-03-24T12:37:43.459Z,56.20
2019-03-24T12:38:47.051Z,56.30
2019-03-24T12:39:50.442Z,56.20
2019-03-24T12:40:53.743Z,56.20
2019-03-24T12:41:57.328Z,57.30
2019-03-24T12:43:00.568Z,56.00
2019-03-24T12:44:03.807Z,56.00
2019-03-24T12:45:09.959Z,55.90
2019-03-24T12:46:13.188Z,56.00
2019-03-24T12:47:16.421Z,56.10
2019-03-24T12:48:20.014Z,56.00
2019-03-24T12:49:23.395Z,55.90
2019-03-24T12:50:31.469Z,55.90
2019-03-24T12:51:31.552Z,55.60
2019-03-24T12:52:35.651Z,54.90
2019-03-24T12:53:38.954Z,56.10
2019-03-24T12:54:42.267Z,56.20
2019-03-24T12:55:45.504Z,56.20
2019-03-24T12:56:48.788Z,56.20
2019-03-24T12:57:52.068Z,56.10
2019-03-24T12:58:55.422Z,56.00
2019-03-24T13:00:00.480Z,56.10
2019-03-24T13:01:03.838Z,56.10
2019-03-24T13:02:08.915Z,56.00
2019-03-24T13:03:12.151Z,56.10
2019-03-24T13:04:15.467Z,55.90
2019-03-24T13:05:18.803Z,56.00
2019-03-24T13:06:23.811Z,55.90
2019-03-24T13:07:27.079Z,56.00
2019-03-24T13:08:30.388Z,56.10
2019-03-24T13:09:34.071Z,55.90
2019-03-24T13:10:39.915Z,55.90
2019-03-24T13:11:44.077Z,55.90
2019-03-24T13:12:47.307Z,55.90
2019-03-24T13:13:50.540Z,56.00
2019-03-24T13:14:54.155Z,56.00
2019-03-24T13:15:57.747Z,56.10
2019-03-24T13:17:00.982Z,55.90
2019-03-24T13:18:04.338Z,56.10
2019-03-24T13:19:07.683Z,56.10
2019-03-24T13:20:20.214Z,56.00
2019-03-24T13:21:15.947Z,56.00
2019-03-24T13:22:19.255Z,56.10
2019-03-24T13:23:22.485Z,56.20
2019-03-24T13:24:26.086Z,56.10
2019-03-24T13:25:29.402Z,56.20
2019-03-24T13:26:32.801Z,56.10
2019-03-24T13:27:36.104Z,56.20
2019-03-24T13:28:39.427Z,56.30
2019-03-24T13:29:42.996Z,56.20
2019-03-24T13:30:48.000Z,56.10
2019-03-24T13:31:51.355Z,56.20
2019-03-24T13:33:00.436Z,56.20
2019-03-24T13:34:03.780Z,56.20
2019-03-24T13:35:07.015Z,56.20
2019-03-24T13:36:10.312Z,56.20
2019-03-24T13:37:13.881Z,56.20
2019-03-24T13:38:17.483Z,56.10
2019-03-24T13:39:21.151Z,56.00
2019-03-24T13:40:24.402Z,56.20
2019-03-24T13:41:27.635Z,56.20
2019-03-24T13:42:30.867Z,57.30